Portada
METAR-TAF:

METAR-TAF

Aeropuertos :

Kermanshah, Irán

latitud: 34-16N, longitud: 047-07E, altitud: 1320 m

Observación

El informe se hizo hace 30 minutos, a las 02:00 UTC
Viento 6 kt del oeste-noroeste
Temperatura 7°C
Humedad 76%
Presión 1017 hPa
Visibilidad 10 km o más
Escasas nubes a una altura de 4000 ft

METAR: OICC 030200Z 30006KT 9999 FEW040 07/03 Q1016 A3002

Hora: 07:00 (02:30 UTC)


TAF: falta

Observaciones y pronósticos meteorológicos de más de 4000 aeropuertos (mensajes METAR y TAF).

Los puntos amarillos y rojos representan las estaciones disponibles.

Ponga el ratón en el punto deseado para ver el nombre de la estación.

Haga clic para ver las observaciones y los pronósticos meteorológicos.

Para cambiar el mapa : haga clic en los botones verdes con una cruz de color negro para hacer un zoom, en el botón verde con un guión para alejar o en las flechas verdes para mapas adyacentes.


METAR-TAF: